Etusivu
METAR-TAF:

METAR-TAF

Lentoasemat :

Rome State Airport

Rome, Oregon, Yhdysvallat

Leveyspiiri: 42-35-26N, Pituuspiiri: 117-51-52W, korkeus merenpinnasta: 1234 m

Tämänhetkinen sää

Tämä raportti tehtiin 50 minuuttia sitten, kello 17.52 UTC
Tuuli 7 kn pohjoisen/luoteesta
Lämpötila 6°C
Kosteus 49%
Ilmanpaine 1022 hPa

METAR: KREO 121752Z AUTO 34007KT 06/M04 A3018 RMK AO1 SLP233 T00611039 10061 21050 58007

Aika: 11:42 (18:42 UTC)


TAF: puuttuu

Säähavainnot ja -ennusteet yli 4000 lentoasemalta (METAR- ja TAF-raportit).

Käytössä olevat sääasemat on merkitty karttaan keltaisilla ja punaisilla pisteillä.

Aseta hiiri pisteen päälle nähdäksesi sääaseman nimen.

Klikkaa sitten nähdäksesi säähavainnot ja -ennusteet.

Kartan vaihtaminen: klikkaa mustalla rastilla varustettuja vihreitä pisteitä, niin voit zoomata sisään; viivalla varustettua vihreää pistettä, niin voit zoomata ulos tai vihreitä nuolia, niin pääset viereisille kartoille.


METAR-TAF: